Time;durP1;ratioP1;P1;durP2;ratioP2;P2;SDS_P1;SDS_P2;PMS_P1;PMS_P2;Temp;Humidity;BMP_temperature;BMP_pressure;BME280_temperature;BME280_humidity;BME280_pressure;Samples;Min_cycle;Max_cycle;Signal;HPM_P1;HPM_P2
2021/03/01 00:01:52;;;;;;;52.88;26.65;;;5.50;86.10;4.30;103383.00;;;;4988908;28;20038;-74
2021/03/01 00:04:18;;;;;;;57.75;27.70;;;5.50;87.20;4.40;103409.00;;;;5006693;28;20071;-73
2021/03/01 00:06:44;;;;;;;58.05;27.58;;;5.40;87.10;4.40;103400.00;;;;4969747;28;20073;-73
2021/03/01 00:09:10;;;;;;;62.33;27.15;;;5.60;87.10;4.40;103398.00;;;;5008223;28;20038;-73
2021/03/01 00:11:36;;;;;;;61.25;27.38;;;5.60;87.20;4.40;103411.00;;;;4991631;28;20139;-73
2021/03/01 00:14:02;;;;;;;64.75;27.88;;;5.60;87.10;4.40;103402.00;;;;4963219;28;20042;-73
2021/03/01 00:16:28;;;;;;;59.83;28.58;;;5.60;86.30;4.30;103399.00;;;;4974513;28;20050;-73
2021/03/01 00:18:54;;;;;;;68.60;29.38;;;5.50;86.70;4.30;103401.00;;;;4975682;28;20124;-73
2021/03/01 00:21:20;;;;;;;56.28;26.73;;;5.60;87.50;4.20;103396.00;;;;4975396;28;20212;-73
2021/03/01 00:23:47;;;;;;;60.42;28.52;;;5.50;87.00;4.30;103403.00;;;;4993082;28;20050;-73
2021/03/01 00:26:13;;;;;;;60.88;28.00;;;5.50;87.20;4.30;103396.00;;;;4993436;28;20652;-73
2021/03/01 00:28:40;;;;;;;64.07;28.05;;;5.50;88.40;4.30;103387.00;;;;4986332;28;20045;-73
2021/03/01 00:31:07;;;;;;;51.63;26.63;;;5.50;87.50;4.30;103392.00;;;;4971039;28;20754;-73
2021/03/01 00:33:33;;;;;;;61.50;27.43;;;5.40;86.70;4.30;103394.00;;;;4976932;28;20460;-73
2021/03/01 00:35:59;;;;;;;63.78;29.73;;;5.50;87.20;4.20;103399.00;;;;4990711;28;20470;-73
2021/03/01 00:38:25;;;;;;;58.90;27.75;;;5.50;88.90;4.20;103397.00;;;;4988072;28;20156;-73
2021/03/01 00:40:51;;;;;;;58.50;27.58;;;5.50;87.90;4.20;103396.00;;;;4986656;28;20108;-73
2021/03/01 00:43:18;;;;;;;50.60;26.33;;;5.50;87.40;4.20;103402.00;;;;4974706;28;20041;-73
2021/03/01 00:45:44;;;;;;;65.15;30.83;;;5.50;86.90;4.30;103397.00;;;;4985623;28;20042;-73
2021/03/01 00:48:10;;;;;;;51.38;26.30;;;5.50;86.90;4.30;103394.00;;;;4974863;28;20056;-73
2021/03/01 00:50:36;;;;;;;58.60;29.42;;;5.50;87.30;4.30;103396.00;;;;4968134;28;20096;-73
2021/03/01 00:53:03;;;;;;;64.50;30.02;;;5.50;87.80;4.30;103410.00;;;;4970144;28;20045;-73
2021/03/01 00:55:29;;;;;;;65.95;30.70;;;5.50;86.80;4.30;103399.00;;;;4971115;28;20038;-73
2021/03/01 00:57:57;;;;;;;68.82;31.02;;;5.50;87.20;4.30;103400.00;;;;4972522;28;20136;-73
2021/03/01 01:00:23;;;;;;;63.38;31.05;;;5.50;87.80;4.30;103390.00;;;;4990548;28;20154;-74
2021/03/01 01:02:58;;;;;;;59.40;28.08;;;5.50;88.10;4.30;103394.00;;;;4988419;28;20420;-73
2021/03/01 01:05:44;;;;;;;61.75;30.00;;;5.50;88.10;4.30;103390.00;;;;4989612;28;20041;-73
2021/03/01 01:08:11;;;;;;;63.90;29.65;;;7.00;89.50;4.30;103397.00;;;;4989003;28;20137;-73
2021/03/01 01:10:38;;;;;;;56.58;28.35;;;5.50;89.00;4.20;103398.00;;;;4989556;28;20096;-74
2021/03/01 01:13:05;;;;;;;61.58;27.95;;;5.50;88.60;4.20;103380.00;;;;4977543;28;20042;-72
2021/03/01 01:15:32;;;;;;;62.53;28.38;;;5.50;88.60;4.20;103394.00;;;;4987382;28;20100;-73
2021/03/01 01:17:58;;;;;;;59.75;28.60;;;5.40;88.70;4.20;103385.00;;;;4986949;28;20126;-73
2021/03/01 01:20:25;;;;;;;51.57;26.73;;;5.40;88.30;4.20;103385.00;;;;4969192;28;20096;-74
2021/03/01 01:22:51;;;;;;;50.03;27.27;;;5.40;88.70;4.20;103392.00;;;;4994685;28;20280;-73
2021/03/01 01:25:18;;;;;;;52.80;27.85;;;5.40;88.70;4.30;103402.00;;;;5002333;28;20296;-73
2021/03/01 01:27:44;;;;;;;54.80;27.40;;;6.90;89.50;4.30;103390.00;;;;4988220;28;20065;-73
2021/03/01 01:30:18;;;;;;;53.70;26.55;;;8.00;89.70;4.20;103397.00;;;;4986415;28;20030;-74
2021/03/01 01:32:45;;;;;;;52.22;25.52;;;5.50;89.80;4.20;103387.00;;;;4958268;28;20049;-73
2021/03/01 01:35:12;;;;;;;49.72;25.15;;;5.40;88.90;4.20;103387.00;;;;4957309;28;20045;-73
2021/03/01 01:37:39;;;;;;;49.13;25.27;;;5.50;88.40;4.30;103385.00;;;;4974626;28;20709;-73
2021/03/01 01:40:09;;;;;;;44.90;24.38;;;5.50;88.90;4.30;103390.00;;;;4977849;28;20630;-74
2021/03/01 01:42:36;;;;;;;41.67;24.20;;;5.50;88.30;4.30;103385.00;;;;4971461;28;20058;-73
2021/03/01 01:45:11;;;;;;;50.78;26.17;;;5.50;89.10;4.30;103373.00;;;;4973661;28;20169;-73
2021/03/01 01:47:37;;;;;;;45.65;24.70;;;5.50;88.10;4.30;103386.00;;;;4991865;28;20048;-73
2021/03/01 01:50:05;;;;;;;43.70;23.77;;;5.50;88.80;4.30;103379.00;;;;4972926;28;20895;-73
2021/03/01 01:52:31;;;;;;;48.55;24.70;;;5.50;88.10;4.30;103382.00;;;;4986416;28;20069;-73
2021/03/01 01:54:58;;;;;;;45.30;24.33;;;6.40;88.20;4.30;103371.00;;;;4970849;28;20046;-73
2021/03/01 01:57:24;;;;;;;36.40;21.13;;;5.50;89.50;4.30;103377.00;;;;4983449;28;20144;-73
2021/03/01 01:59:51;;;;;;;46.88;24.52;;;5.50;88.40;4.20;103369.00;;;;4972303;28;20048;-73
2021/03/01 02:02:17;;;;;;;42.88;23.92;;;5.50;88.00;4.20;103376.00;;;;4987509;28;20396;-73
2021/03/01 02:04:52;;;;;;;44.65;24.38;;;5.40;88.80;4.20;103367.00;;;;5001977;28;20064;-73
2021/03/01 02:08:04;;;;;;;48.53;24.83;;;5.50;89.00;4.20;103366.00;;;;4970168;28;20048;-72
2021/03/01 02:10:48;;;;;;;43.85;23.13;;;5.50;88.50;4.30;103365.00;;;;4975950;28;20052;-73
2021/03/01 02:13:38;;;;;;;41.88;22.67;;;5.50;88.60;4.30;103361.00;;;;4971766;28;20833;-73
2021/03/01 02:16:11;;;;;;;46.35;24.15;;;5.50;87.80;4.30;103361.00;;;;4965087;28;20065;-73
2021/03/01 02:18:37;;;;;;;52.13;26.35;;;5.50;88.80;4.30;103363.00;;;;4981546;28;20030;-73
2021/03/01 02:21:11;;;;;;;45.10;24.02;;;5.50;89.10;4.30;103359.00;;;;4970235;28;20049;-73
2021/03/01 02:23:42;;;;;;;42.10;21.33;;;5.50;88.10;4.30;103362.00;;;;4961815;28;20035;-72
2021/03/01 02:26:31;;;;;;;52.65;26.15;;;5.50;88.80;4.30;103359.00;;;;4983472;28;20492;-73
2021/03/01 02:29:08;;;;;;;47.97;24.23;;;5.60;88.90;4.30;103362.00;;;;4979592;28;20582;-73
2021/03/01 02:31:39;;;;;;;48.55;25.63;;;5.50;88.20;4.40;103360.00;;;;4986040;28;20077;-73
2021/03/01 02:34:07;;;;;;;48.63;24.10;;;5.60;88.10;4.40;103365.00;;;;4986575;28;22378;-73
2021/03/01 02:36:41;;;;;;;50.58;25.45;;;5.50;88.60;4.40;103370.00;;;;4983586;28;20121;-73
2021/03/01 02:39:09;;;;;;;47.13;24.20;;;5.60;88.10;4.40;103368.00;;;;4981229;28;20103;-73
2021/03/01 02:41:36;;;;;;;51.72;25.52;;;5.90;88.70;4.40;103368.00;;;;4986259;28;20050;-74
2021/03/01 02:44:03;;;;;;;47.20;25.40;;;5.60;89.20;4.40;103364.00;;;;4975387;28;20042;-73
2021/03/01 02:46:30;;;;;;;50.65;25.60;;;5.60;89.20;4.40;103352.00;;;;4987535;28;20709;-73
2021/03/01 02:48:56;;;;;;;55.75;27.77;;;5.60;89.40;4.40;103365.00;;;;4998251;28;20045;-73
2021/03/01 02:51:24;;;;;;;48.85;25.73;;;5.60;89.40;4.40;103363.00;;;;4981023;28;21082;-73
2021/03/01 02:53:50;;;;;;;52.97;26.27;;;5.60;88.90;4.40;103363.00;;;;4974663;28;20042;-73
2021/03/01 02:56:19;;;;;;;54.67;26.40;;;5.50;89.20;4.40;103356.00;;;;4983733;28;20093;-73
2021/03/01 02:58:47;;;;;;;52.47;26.90;;;5.60;89.10;4.40;103368.00;;;;4968187;28;20052;-73
2021/03/01 03:01:13;;;;;;;47.58;24.77;;;5.60;88.60;4.40;103363.00;;;;4978386;28;20045;-73
2021/03/01 03:03:41;;;;;;;48.63;24.92;;;5.60;89.00;4.40;103363.00;;;;4984777;28;20153;-73
2021/03/01 03:06:14;;;;;;;58.70;29.10;;;5.60;89.10;4.40;103362.00;;;;4980107;28;20112;-72
2021/03/01 03:08:41;;;;;;;54.58;27.65;;;5.70;89.70;4.40;103353.00;;;;4993092;28;20048;-72
2021/03/01 03:11:07;;;;;;;50.33;25.35;;;5.60;88.90;4.40;103349.00;;;;4968219;28;20050;-73
2021/03/01 03:13:34;;;;;;;60.13;27.15;;;5.60;89.40;4.40;103349.00;;;;4965891;28;20072;-73
2021/03/01 03:16:02;;;;;;;62.28;27.67;;;5.60;88.20;4.40;103346.00;;;;4986688;28;20050;-73
2021/03/01 03:18:29;;;;;;;56.60;27.70;;;5.60;89.20;4.40;103342.00;;;;4983919;28;20042;-72
2021/03/01 03:20:58;;;;;;;51.08;25.15;;;5.60;89.60;4.40;103337.00;;;;4980871;28;20039;-73
2021/03/01 03:23:25;;;;;;;49.33;24.50;;;5.60;89.30;4.40;103340.00;;;;4983044;28;20074;-72
2021/03/01 03:25:52;;;;;;;54.22;25.27;;;5.60;89.30;4.40;103343.00;;;;4973764;28;20310;-73
2021/03/01 03:28:19;;;;;;;47.45;24.38;;;6.90;89.30;4.50;103339.00;;;;4982270;28;20129;-73
2021/03/01 03:30:45;;;;;;;52.33;25.15;;;5.70;89.20;4.40;103326.00;;;;4964635;28;20038;-73
2021/03/01 03:33:11;;;;;;;54.85;25.13;;;5.70;88.00;4.40;103325.00;;;;4985510;28;20034;-73
2021/03/01 03:35:37;;;;;;;51.70;25.50;;;5.60;89.00;4.40;103326.00;;;;4973996;28;20100;-72
2021/03/01 03:38:11;;;;;;;58.58;26.17;;;5.60;88.60;4.30;103336.00;;;;4981297;28;20452;-73
2021/03/01 03:40:41;;;;;;;47.08;24.45;;;5.60;89.30;4.40;103332.00;;;;4991118;28;20058;-73
2021/03/01 03:43:07;;;;;;;55.40;25.58;;;5.60;88.60;4.40;103326.00;;;;4971250;28;20062;-73
2021/03/01 03:45:34;;;;;;;55.60;26.20;;;5.60;88.20;4.30;103327.00;;;;4969523;28;20591;-73
2021/03/01 03:48:04;;;;;;;44.55;22.20;;;5.90;88.20;4.30;103331.00;;;;4987369;28;20134;-71
2021/03/01 03:50:31;;;;;;;58.78;26.02;;;5.60;88.50;4.40;103335.00;;;;4985542;28;20188;-74
2021/03/01 03:53:12;;;;;;;51.28;24.88;;;5.50;88.60;4.30;103331.00;;;;4992108;28;20113;-74
2021/03/01 03:55:45;;;;;;;47.40;22.77;;;5.50;89.30;4.20;103334.00;;;;4984888;28;20257;-74
2021/03/01 03:58:14;;;;;;;48.90;23.08;;;5.50;89.10;4.20;103320.00;;;;4983900;28;20769;-72
2021/03/01 04:00:40;;;;;;;48.35;24.80;;;5.50;88.10;4.30;103328.00;;;;4985707;28;20038;-72
2021/03/01 04:03:14;;;;;;;46.45;23.17;;;5.50;88.60;4.30;103329.00;;;;4993733;28;20045;-72
2021/03/01 04:05:42;;;;;;;48.35;23.77;;;5.50;89.20;4.30;103328.00;;;;4990011;28;20037;-73
2021/03/01 04:08:13;;;;;;;41.45;21.45;;;5.50;89.20;4.30;103321.00;;;;4989754;28;20057;-72
2021/03/01 04:10:43;;;;;;;46.83;22.27;;;5.50;89.20;4.30;103325.00;;;;5005264;28;20030;-72
2021/03/01 04:13:12;;;;;;;43.95;22.77;;;5.50;89.10;4.30;103332.00;;;;4987123;28;20135;-72
2021/03/01 04:15:44;;;;;;;41.65;21.73;;;5.50;88.10;4.30;103336.00;;;;4994607;28;20084;-72
2021/03/01 04:18:11;;;;;;;44.40;22.15;;;5.50;89.20;4.30;103326.00;;;;4990022;28;20468;-72
2021/03/01 04:20:39;;;;;;;43.47;23.05;;;5.50;88.70;4.30;103333.00;;;;4979501;28;20089;-74
2021/03/01 04:23:05;;;;;;;;;;;5.50;88.80;4.20;103332.00;;;;4989739;28;20070;-72
2021/03/01 04:25:32;;;;;;;46.60;22.17;;;5.50;89.30;4.20;103334.00;;;;4970408;28;19926;-73
2021/03/01 04:27:59;;;;;;;38.45;20.08;;;5.50;88.60;4.20;103327.00;;;;4978784;28;21095;-72
2021/03/01 04:30:26;;;;;;;37.65;19.35;;;5.50;88.70;4.20;103333.00;;;;4988565;28;20026;-72
2021/03/01 04:32:53;;;;;;;40.25;20.58;;;5.50;89.00;4.20;103329.00;;;;4967640;28;20079;-73
2021/03/01 04:35:19;;;;;;;39.30;19.83;;;5.50;88.90;4.20;103322.00;;;;4975554;28;20038;-72
2021/03/01 04:37:46;;;;;;;35.00;19.63;;;5.50;88.90;4.20;103325.00;;;;4982266;28;20058;-73
2021/03/01 04:40:14;;;;;;;37.25;19.17;;;6.00;88.70;4.20;103314.00;;;;4963815;28;20305;-73
2021/03/01 04:42:45;;;;;;;37.55;20.42;;;5.40;88.80;4.20;103314.00;;;;4972451;28;20104;-73
2021/03/01 04:45:14;;;;;;;38.55;21.13;;;5.40;88.00;4.20;103313.00;;;;4975896;28;20093;-72
2021/03/01 04:47:42;;;;;;;43.78;21.08;;;5.40;87.70;4.20;103318.00;;;;4972163;28;20073;-73
2021/03/01 04:50:10;;;;;;;;;;;5.40;88.30;4.10;103318.00;;;;4971736;28;20085;-73
2021/03/01 04:52:38;;;;;;;40.00;20.63;;;5.40;88.40;4.20;103316.00;;;;4954109;28;19944;-73
2021/03/01 04:55:06;;;;;;;40.75;21.55;;;5.40;88.70;4.10;103316.00;;;;4966381;28;20141;-73
2021/03/01 04:57:33;;;;;;;40.95;20.17;;;5.40;88.70;4.20;103333.00;;;;4968794;28;20126;-72
2021/03/01 05:00:01;;;;;;;43.60;21.50;;;5.40;88.10;4.10;103320.00;;;;4970791;28;20529;-73
2021/03/01 05:02:29;;;;;;;42.63;21.13;;;5.40;88.00;4.10;103333.00;;;;4966681;28;20046;-73
2021/03/01 05:04:57;;;;;;;44.33;22.05;;;5.30;88.70;4.10;103335.00;;;;4974132;28;20046;-73
2021/03/01 05:07:24;;;;;;;;;;;5.90;89.20;4.00;103328.00;;;;4962387;28;20051;-72
2021/03/01 05:09:51;;;;;;;41.20;19.95;;;5.30;88.60;4.00;103326.00;;;;4954143;28;20300;-72
2021/03/01 05:12:17;;;;;;;45.03;21.50;;;5.30;89.30;4.00;103328.00;;;;4936213;28;20570;-73
2021/03/01 05:14:43;;;;;;;45.25;21.60;;;5.30;88.30;4.00;103336.00;;;;4965961;28;20047;-72
2021/03/01 05:17:09;;;;;;;42.65;22.15;;;5.30;89.10;4.00;103340.00;;;;4964811;28;20084;-73
2021/03/01 05:19:35;;;;;;;45.97;21.20;;;5.30;89.10;4.00;103324.00;;;;4949541;28;20050;-73
2021/03/01 05:22:01;;;;;;;44.35;21.88;;;5.30;90.10;4.00;103334.00;;;;4971435;28;20176;-72
2021/03/01 05:24:27;;;;;;;40.67;19.95;;;5.20;89.50;4.00;103329.00;;;;4953375;28;20047;-73
2021/03/01 05:26:53;;;;;;;38.35;19.80;;;5.20;89.10;4.00;103337.00;;;;4970624;28;20050;-73
2021/03/01 05:29:19;;;;;;;42.40;20.67;;;5.20;89.10;4.00;103333.00;;;;4964089;28;20039;-72
2021/03/01 05:31:45;;;;;;;44.20;22.02;;;5.20;88.20;4.00;103337.00;;;;4969761;28;20058;-73
2021/03/01 05:34:11;;;;;;;40.03;21.23;;;5.20;88.30;3.90;103330.00;;;;4971636;28;20034;-73
2021/03/01 05:36:37;;;;;;;45.95;21.00;;;5.30;89.10;4.00;103338.00;;;;4968642;28;20161;-73
2021/03/01 05:39:04;;;;;;;43.05;20.75;;;5.20;90.00;3.90;103328.00;;;;4963211;28;20073;-72
2021/03/01 05:41:32;;;;;;;36.78;19.30;;;5.20;89.00;3.90;103335.00;;;;4957333;28;20050;-73
2021/03/01 05:43:58;;;;;;;;;;;5.20;89.30;3.90;103332.00;;;;4956190;28;20038;-72
2021/03/01 05:46:25;;;;;;;44.38;21.05;;;5.10;88.80;3.90;103334.00;;;;4969719;28;19918;-73
2021/03/01 05:48:55;;;;;;;;;;;5.10;88.30;3.80;103331.00;;;;4968335;28;20050;-73
2021/03/01 05:51:25;;;;;;;40.80;20.92;;;6.30;90.00;3.90;103327.00;;;;4987054;28;20020;-72
2021/03/01 05:53:59;;;;;;;40.55;19.88;;;5.20;89.30;3.90;103332.00;;;;4964349;28;20149;-72
2021/03/01 05:56:26;;;;;;;40.80;20.73;;;5.30;89.40;3.90;103333.00;;;;4986631;28;20052;-72
2021/03/01 05:58:52;;;;;;;42.70;20.17;;;5.20;89.40;3.90;103340.00;;;;4975079;28;20156;-72
2021/03/01 06:01:18;;;;;;;43.60;21.15;;;5.20;88.20;3.90;103340.00;;;;4982811;28;20037;-72
2021/03/01 06:03:44;;;;;;;42.40;21.48;;;5.90;89.40;3.90;103342.00;;;;4969826;28;20168;-73
2021/03/01 06:06:12;;;;;;;46.17;22.13;;;5.10;88.20;3.90;103346.00;;;;4988441;28;20045;-73
2021/03/01 06:08:39;;;;;;;46.03;22.58;;;6.00;90.00;3.90;103330.00;;;;4974541;28;20133;-72
2021/03/01 06:11:07;;;;;;;41.20;21.95;;;5.10;90.10;3.90;103337.00;;;;4984615;28;20049;-72
2021/03/01 06:13:36;;;;;;;46.70;22.23;;;5.10;89.20;3.90;103332.00;;;;4988414;28;20574;-73
2021/03/01 06:16:04;;;;;;;45.45;22.42;;;5.10;88.40;3.90;103332.00;;;;5006763;28;20129;-73
2021/03/01 06:18:31;;;;;;;45.42;23.00;;;5.10;88.50;3.90;103341.00;;;;4990365;28;20162;-73
2021/03/01 06:21:18;;;;;;;44.72;22.00;;;5.20;89.50;3.90;103333.00;;;;5005183;28;20072;-73
2021/03/01 06:23:45;;;;;;;45.42;22.17;;;5.20;88.50;3.90;103335.00;;;;4984727;28;20050;-72
2021/03/01 06:26:32;;;;;;;46.03;21.77;;;5.20;89.20;3.90;103339.00;;;;4977613;28;20122;-71
2021/03/01 06:29:06;;;;;;;46.85;22.00;;;5.20;89.10;3.90;103341.00;;;;5002196;28;20701;-71
2021/03/01 06:31:45;;;;;;;47.22;22.05;;;5.20;89.10;3.80;103348.00;;;;4991090;28;20060;-71
2021/03/01 06:34:33;;;;;;;47.90;22.20;;;5.10;89.10;3.70;103335.00;;;;4988883;28;20034;-72
2021/03/01 06:37:04;;;;;;;43.00;22.08;;;5.10;89.00;3.80;103348.00;;;;4979092;28;20119;-71
2021/03/01 06:39:46;;;;;;;50.30;21.33;;;5.10;89.90;3.80;103351.00;;;;4974590;28;20440;-71
2021/03/01 06:42:18;;;;;;;44.08;20.70;;;5.10;88.60;3.80;103347.00;;;;4985904;28;20066;-73
2021/03/01 06:44:44;;;;;;;39.72;19.15;;;5.10;88.60;3.80;103350.00;;;;4989838;28;20147;-73
2021/03/01 06:47:10;;;;;;;48.05;22.20;;;5.10;88.70;3.80;103349.00;;;;4991138;28;20034;-72
2021/03/01 06:49:38;;;;;;;49.97;22.63;;;6.50;90.00;3.80;103348.00;;;;5007497;28;20053;-73
2021/03/01 06:52:04;;;;;;;47.03;21.33;;;5.10;89.30;3.90;103355.00;;;;4990104;28;20128;-72
2021/03/01 06:54:30;;;;;;;41.85;20.38;;;5.20;88.60;3.90;103361.00;;;;4973460;28;20488;-74
2021/03/01 06:56:56;;;;;;;39.58;19.85;;;5.80;90.50;3.90;103350.00;;;;4989534;28;20061;-70
2021/03/01 06:59:23;;;;;;;43.28;19.75;;;;;3.90;103354.00;;;;4989869;28;20643;-70
2021/03/01 07:01:56;;;;;;;35.50;17.48;;;5.20;88.40;3.90;103359.00;;;;4981316;28;20050;-70
2021/03/01 07:04:32;;;;;;;39.72;18.90;;;5.20;89.60;3.90;103368.00;;;;4987416;28;20037;-71
2021/03/01 07:06:59;;;;;;;37.40;18.05;;;5.10;89.70;3.90;103376.00;;;;4982819;28;20053;-70
2021/03/01 07:09:29;;;;;;;38.55;18.65;;;5.20;89.80;3.90;103365.00;;;;4984247;28;20042;-71
2021/03/01 07:11:56;;;;;;;38.25;18.45;;;5.20;89.50;3.90;103364.00;;;;4988234;28;20042;-70
2021/03/01 07:14:27;;;;;;;38.10;19.15;;;5.10;88.90;3.90;103370.00;;;;4978987;28;20117;-70
2021/03/01 07:16:57;;;;;;;38.63;19.45;;;5.20;89.50;3.90;103360.00;;;;5009497;28;20830;-71
2021/03/01 07:19:27;;;;;;;38.05;19.80;;;5.20;89.50;3.90;103356.00;;;;4972326;28;20065;-70
2021/03/01 07:21:57;;;;;;;37.28;18.80;;;5.10;89.40;3.90;103367.00;;;;4987898;28;20125;-70
2021/03/01 07:24:27;;;;;;;44.00;19.60;;;5.20;89.40;3.90;103367.00;;;;4981306;28;20524;-70
2021/03/01 07:26:58;;;;;;;37.85;18.48;;;5.20;89.70;3.90;103370.00;;;;4991655;28;20046;-71
2021/03/01 07:29:30;;;;;;;35.25;19.42;;;5.10;89.80;4.00;103371.00;;;;4991043;28;20124;-70
2021/03/01 07:32:08;;;;;;;39.30;19.23;;;5.20;89.70;3.90;103366.00;;;;5005220;28;20550;-70
2021/03/01 07:34:36;;;;;;;39.13;19.17;;;5.20;89.70;3.90;103369.00;;;;4994150;28;20046;-71
2021/03/01 07:37:02;;;;;;;;;;;5.20;89.80;3.90;103361.00;;;;4984800;28;20046;-70
2021/03/01 07:39:31;;;;;;;39.92;20.38;;;5.20;90.00;3.90;103358.00;;;;4984246;28;20308;-70
2021/03/01 07:41:58;;;;;;;43.53;20.38;;;5.20;89.70;3.90;103358.00;;;;4990093;28;20060;-71
2021/03/01 07:44:31;;;;;;;41.38;21.38;;;5.10;89.10;3.90;103365.00;;;;4976964;28;20872;-70
2021/03/01 07:47:00;;;;;;;39.53;20.05;;;5.10;89.30;3.90;103372.00;;;;4993908;28;20077;-71
2021/03/01 07:49:49;;;;;;;41.50;20.55;;;5.20;90.00;4.00;103358.00;;;;4981031;28;20484;-71
2021/03/01 07:52:18;;;;;;;42.95;20.98;;;5.20;89.80;4.10;103360.00;;;;4983255;28;20110;-72
2021/03/01 07:54:59;;;;;;;38.90;19.08;;;5.30;90.20;4.10;103362.00;;;;4992177;28;20091;-71
2021/03/01 07:57:27;;;;;;;39.63;19.90;;;5.30;89.60;4.20;103366.00;;;;4991732;28;20049;-71
2021/03/01 07:59:54;;;;;;;43.72;21.27;;;5.40;89.40;4.20;103363.00;;;;4993770;28;20504;-70
2021/03/01 08:02:31;;;;;;;44.58;21.63;;;5.30;89.70;4.20;103374.00;;;;4984216;28;20088;-69
2021/03/01 08:05:00;;;;;;;44.58;21.90;;;5.30;88.80;4.10;103363.00;;;;4988241;28;20046;-71
2021/03/01 08:07:40;;;;;;;41.08;20.00;;;6.50;90.10;4.20;103366.00;;;;4983864;28;20129;-74
2021/03/01 08:10:13;;;;;;;38.72;19.35;;;5.40;89.60;4.20;103372.00;;;;4989311;28;20050;-71
2021/03/01 08:12:39;;;;;;;37.35;19.30;;;5.40;89.40;4.30;103366.00;;;;4988706;28;20042;-70
2021/03/01 08:15:13;;;;;;;38.72;18.73;;;5.40;88.80;4.30;103352.00;;;;4984528;28;20042;-70
2021/03/01 08:17:40;;;;;;;37.00;18.73;;;5.40;89.40;4.30;103367.00;;;;4987261;28;20605;-70
2021/03/01 08:20:15;;;;;;;36.17;19.95;;;5.40;88.40;4.30;103361.00;;;;4985918;28;20157;-71
2021/03/01 08:23:10;;;;;;;38.53;20.02;;;5.50;88.30;4.30;103361.00;;;;4985872;28;20050;-70
2021/03/01 08:25:42;;;;;;;37.80;20.13;;;5.50;89.10;4.40;103362.00;;;;4987025;28;20408;-70
2021/03/01 08:28:20;;;;;;;37.78;19.23;;;6.00;89.30;4.30;103363.00;;;;4982767;28;20049;-70
2021/03/01 08:30:52;;;;;;;38.75;20.38;;;5.60;89.30;4.30;103368.00;;;;5000317;28;20053;-71
2021/03/01 08:33:18;;;;;;;37.15;19.77;;;5.50;88.90;4.30;103370.00;;;;4989539;28;20451;-70
2021/03/01 08:36:13;;;;;;;37.08;19.90;;;5.50;88.50;4.30;103364.00;;;;4992015;28;20100;-70
2021/03/01 08:38:50;;;;;;;38.08;19.92;;;5.50;89.30;4.40;103374.00;;;;4991175;28;20080;-70
2021/03/01 08:41:18;;;;;;;39.28;18.70;;;5.60;89.20;4.40;103380.00;;;;4975784;28;20039;-70
2021/03/01 08:43:52;;;;;;;39.38;19.63;;;5.60;89.30;4.40;103373.00;;;;4988579;28;20096;-71
2021/03/01 08:46:22;;;;;;;34.13;17.73;;;5.50;88.50;4.40;103370.00;;;;4990165;28;20619;-71
2021/03/01 08:48:52;;;;;;;40.55;19.20;;;5.60;89.20;4.40;103378.00;;;;4989395;28;20460;-72
2021/03/01 08:51:19;;;;;;;39.08;18.98;;;5.60;89.20;4.50;103380.00;;;;4987689;28;20189;-71
2021/03/01 08:53:45;;;;;;;40.67;19.42;;;;;4.40;103364.00;;;;4981567;28;20504;-71
2021/03/01 08:56:25;;;;;;;39.17;19.17;;;5.60;87.90;4.40;103376.00;;;;4987608;28;20049;-71
2021/03/01 08:58:52;;;;;;;40.80;18.95;;;5.70;88.90;4.40;103379.00;;;;4976247;28;20042;-71
2021/03/01 09:01:18;;;;;;;39.42;19.17;;;5.60;87.90;4.40;103374.00;;;;4995867;28;20783;-71
2021/03/01 09:03:46;;;;;;;39.42;19.58;;;6.00;89.20;4.40;103374.00;;;;4969901;28;20053;-71
2021/03/01 09:06:17;;;;;;;44.33;21.52;;;5.70;89.10;4.40;103373.00;;;;4963305;28;20092;-72
2021/03/01 09:08:52;;;;;;;44.00;20.83;;;5.60;88.20;4.50;103375.00;;;;4967853;28;20064;-71
2021/03/01 09:11:28;;;;;;;45.13;21.05;;;5.70;88.40;4.50;103370.00;;;;4971769;28;20038;-70
2021/03/01 09:14:05;;;;;;;41.25;19.30;;;5.70;88.30;4.50;103354.00;;;;4970443;28;20042;-70
2021/03/01 09:16:34;;;;;;;37.80;18.65;;;5.70;89.10;4.60;103361.00;;;;4965034;28;20069;-71
2021/03/01 09:19:06;;;;;;;36.08;18.92;;;5.70;89.10;4.60;103373.00;;;;4962819;28;20121;-71
2021/03/01 09:21:36;;;;;;;40.78;18.45;;;5.80;88.80;4.60;103365.00;;;;4967353;28;20057;-71
2021/03/01 09:24:03;;;;;;;35.15;18.15;;;5.80;88.80;4.60;103366.00;;;;4972189;28;20572;-71
2021/03/01 09:26:33;;;;;;;39.85;19.33;;;5.80;87.80;4.60;103362.00;;;;4971574;28;20049;-72
2021/03/01 09:29:17;;;;;;;36.47;17.70;;;5.90;89.00;4.50;103355.00;;;;4972127;28;20132;-72
2021/03/01 09:31:46;;;;;;;35.25;17.92;;;5.70;87.80;4.60;103366.00;;;;4968246;28;20469;-72
2021/03/01 09:34:17;;;;;;;39.70;18.40;;;5.80;88.90;4.60;103369.00;;;;4973470;28;20031;-72
2021/03/01 09:36:48;;;;;;;34.13;16.95;;;5.80;88.70;4.60;103367.00;;;;4975002;28;20050;-71
2021/03/01 09:39:25;;;;;;;34.72;17.33;;;5.80;88.70;4.60;103366.00;;;;5007983;28;20052;-71
2021/03/01 09:41:56;;;;;;;43.83;19.48;;;5.80;88.70;4.60;103372.00;;;;4963100;28;20359;-72
2021/03/01 09:44:32;;;;;;;38.65;18.23;;;5.80;87.90;4.60;103373.00;;;;4957813;28;20105;-72
2021/03/01 09:47:00;;;;;;;37.33;17.38;;;5.80;87.80;4.70;103373.00;;;;4985715;28;20039;-71
2021/03/01 09:49:28;;;;;;;39.38;17.95;;;7.50;89.70;4.70;103365.00;;;;4989289;28;20411;-72
2021/03/01 09:51:55;;;;;;;38.85;18.38;;;5.90;87.70;4.80;103365.00;;;;4983325;28;20428;-71
2021/03/01 09:54:25;;;;;;;40.75;19.75;;;5.90;88.60;4.80;103355.00;;;;4973676;28;20500;-71
2021/03/01 09:56:55;;;;;;;39.00;19.15;;;7.30;89.40;4.80;103365.00;;;;4967336;28;20048;-71
2021/03/01 09:59:42;;;;;;;39.65;20.55;;;6.00;87.90;4.80;103365.00;;;;4967586;28;20070;-69
2021/03/01 10:02:22;;;;;;;34.70;18.75;;;6.00;88.50;4.90;103360.00;;;;4986712;28;20132;-71
2021/03/01 10:04:51;;;;;;;38.03;18.90;;;6.10;88.50;5.00;103360.00;;;;4967808;28;20042;-71
2021/03/01 10:07:27;;;;;;;39.25;19.08;;;6.10;88.40;5.00;103352.00;;;;4959948;28;20046;-70
2021/03/01 10:09:55;;;;;;;38.15;19.08;;;6.10;88.30;5.00;103357.00;;;;4971016;28;20038;-70
2021/03/01 10:12:23;;;;;;;35.35;18.05;;;6.20;88.30;5.00;103357.00;;;;4967843;28;20076;-70
2021/03/01 10:14:57;;;;;;;35.70;17.25;;;6.20;87.10;4.90;103360.00;;;;4973215;28;20076;-70
2021/03/01 10:17:30;;;;;;;37.40;19.30;;;6.20;88.30;4.90;103361.00;;;;4988413;28;20074;-70
2021/03/01 10:20:13;;;;;;;37.33;18.27;;;6.10;88.10;4.90;103350.00;;;;4968218;28;20062;-70
2021/03/01 10:23:03;;;;;;;42.47;20.55;;;6.20;88.40;4.80;103349.00;;;;4972784;28;20101;-70
2021/03/01 10:25:34;;;;;;;38.40;18.77;;;6.10;88.30;4.80;103349.00;;;;4969015;28;20065;-70
2021/03/01 10:28:00;;;;;;;35.05;17.42;;;6.00;88.40;4.90;103351.00;;;;4970145;28;20038;-69
2021/03/01 10:30:26;;;;;;;37.83;18.38;;;6.10;88.50;5.00;103355.00;;;;4967668;28;20080;-73
2021/03/01 10:33:07;;;;;;;35.15;17.90;;;6.10;88.50;5.10;103358.00;;;;4949634;28;20201;-71
2021/03/01 10:35:34;;;;;;;36.40;17.65;;;6.20;88.20;5.20;103351.00;;;;4975555;28;20038;-71
2021/03/01 10:38:06;;;;;;;34.20;17.58;;;6.30;87.00;5.20;103344.00;;;;4972460;28;20049;-72
2021/03/01 10:40:33;;;;;;;35.33;17.13;;;6.30;87.90;5.20;103349.00;;;;4954172;28;20050;-72
2021/03/01 10:43:10;;;;;;;34.88;17.52;;;6.30;88.90;5.20;103350.00;;;;4972299;28;20039;-72
2021/03/01 10:45:46;;;;;;;33.78;17.20;;;6.30;86.70;5.30;103355.00;;;;4969036;28;20128;-72
2021/03/01 10:48:12;;;;;;;32.28;16.20;;;6.40;87.60;5.30;103357.00;;;;4955954;28;20444;-72
2021/03/01 10:50:38;;;;;;;33.72;16.40;;;6.40;87.40;5.40;103351.00;;;;4958358;28;20149;-71
2021/03/01 10:53:04;;;;;;;31.17;16.33;;;6.50;87.00;5.40;103352.00;;;;4973920;28;20551;-72
2021/03/01 10:55:30;;;;;;;32.60;16.70;;;6.50;85.60;5.50;103354.00;;;;4984293;28;20054;-72
2021/03/01 10:57:56;;;;;;;34.42;16.85;;;6.50;85.70;5.50;103354.00;;;;4972799;28;20050;-73
2021/03/01 11:00:22;;;;;;;28.05;16.58;;;6.60;85.50;5.50;103354.00;;;;4966685;28;20065;-72
2021/03/01 11:02:48;;;;;;;29.58;15.70;;;6.60;86.60;5.60;103348.00;;;;4970506;28;20049;-72